Fillmore, Iowa
Current Conditions -  °F | °C
As of 5:35 PM on Saturday 22 Nov 2014 (Local Time) from KMXO Reporting Station
Haze Haze  
Wind Chill: 45°   Ceiling: 1600
Heat Index: 48°   Visibility: 3mi
Dew Point: 48°   Wind: 8mph
Humidity: 100%   Direction: 160°SSE
Pressure: 29.76"   Gusts: NA
Location:  42.2695°N, 91.0027°W
Report Text: KMXO 222335Z AUTO 16007KT 3SM BR OVC016 09/09 A2976 RMK AO2
Loading
Personal Weather Stations






























Interactive Weather Map New forecast layout! Learn more

10-Day Weather Forecast

Advertisements
Track Severe Weather on mobile